Petersburg, North Dakota
Current Conditions -  °F | °C
As of 8:38 PM on Saturday 20 Dec 2014 (Local Time) from KRDR Reporting Station
Haze Haze  
Wind Chill: 18°   Ceiling: 700
Heat Index: 28°   Visibility: 5mi
Dew Point: 28°   Wind: 12mph
Humidity: 100%   Direction: 200°SSW
Pressure: 29.88"   Gusts: NA
Location:  48.01°N, 98°W
Report Text: KRDR 210238Z AUTO 20010KT 5SM R35/4500FT UP BR OVC007 M02/M02 A2988 RMK AO2
Loading
Personal Weather Stations






























Interactive Weather Map New forecast layout! Learn more

10-Day Weather Forecast

Advertisements
Track Severe Weather on mobile